METAR v bližini

 

LJLJ - Ljubljana/Brnik, Slovenia
Oddaljenost od postaje: W 41km
Podatki zajeti: 12/08/2020 16:30
Delno oblačno
Delno oblačno
 Veter iz smeri E
Veter: E 19 km/h
Temperatura: 27°C
Toplotni indeks: 28°C
Rosišče: 18°C
Vlažnost: 58%
Tlak: 1018 hPa
Oblačnost: Delno oblačno
Vidljivost: 10 km
Podrobnosti o oblakih: Rahlo oblačno 1006 m
Delno oblačno 4877 m
2020/08/12 14:30 LJLJ 121430Z 08010KT 050V110 9999 FEW033TCU SCT160 27/18 Q1018 NOSIG
LJMB - Maribor, Slovenia
Oddaljenost od postaje: NE 63km
Podatki zajeti: 12/08/2020 16:30
Pretežno oblačno
Pretežno oblačno
 Veter iz smeri spremenljiv
Veter: spremenljiv 2 km/h
Temperatura: 29°C
Toplotni indeks: 29°C
Rosišče: 18°C
Vlažnost: 51%
Tlak: 1018 hPa
Oblačnost: Pretežno oblačno
Vidljivost: 10 km
Podrobnosti o oblakih: Rahlo oblačno 1311 m
Delno oblačno 1402 m
Pretežno oblačno 7620 m
2020/08/12 14:30 LJMB 121430Z VRB01KT 9999 FEW043TCU SCT046 BKN250 29/18 Q1018
 
LJPZ - Portoroz, Slovenia
Oddaljenost od postaje: SW 130km
Podatki zajeti: 12/08/2020 16:30
Rahlo oblačno
Rahlo oblačno
 Veter iz smeri SSW
Veter: SSW 7 km/h
Temperatura: 31°C
Toplotni indeks: 33°C
Rosišče: 19°C
Vlažnost: 49%
Tlak: 1015 hPa
Oblačnost: Rahlo oblačno
Vidljivost: 10 km
Podrobnosti o oblakih: Rahlo oblačno 1219 m
2020/08/12 14:30 LJPZ 121430Z 21004KT 180V250 9999 FEW040TCU 31/19 Q1015
LJCE - Cerklje, Slovenia
Oddaljenost od postaje: ESE 49km
Podatki zajeti: 12/08/2020 16:30
Rahlo oblačno
Rahlo oblačno
 Veter iz smeri NE
Veter: NE 7 km/h
Temperatura: 28°C
Toplotni indeks: 29°C
Rosišče: 20°C
Vlažnost: 62%
Tlak: 1017 hPa
Oblačnost: Rahlo oblačno
Vidljivost: 10 km
Podrobnosti o oblakih: Rahlo oblačno 1067 m
2020/08/12 14:30 LJCE 121430Z 05004KT 010V090 9999 FEW035 28/20 Q1017 RMK BLU
 
LDZA - Zagreb/Pleso, Croatia
Oddaljenost od postaje: ESE 96km
Podatki zajeti: 12/08/2020 16:30
Rahlo oblačno
Rahlo oblačno
 Veter iz smeri E
Veter: E 7 km/h
Temperatura: 29°C
Toplotni indeks: 31°C
Rosišče: 20°C
Vlažnost: 58%
Tlak: 1016 hPa
Oblačnost: Rahlo oblačno
Vidljivost: 10 km
Podrobnosti o oblakih: Rahlo oblačno 1219 m
2020/08/12 14:30 LDZA 121430Z 10004KT 050V150 9999 FEW040 29/20 Q1016 NOSIG
LDRI - Rijeka/Omisalj, Croatia
Oddaljenost od postaje: SSW 109km
Podatki zajeti: 12/08/2020 16:30
Delno oblačno
Delno oblačno
 Veter iz smeri N
Veter: N 9 km/h
Temperatura: 28°C
Toplotni indeks: 29°C
Rosišče: 20°C
Vlažnost: 62%
Tlak: 1015 hPa
Oblačnost: Delno oblačno
Vidljivost: 10 km
Podrobnosti o oblakih: Rahlo oblačno 1372 m
Delno oblačno 1372 m
2020/08/12 14:30 LDRI 121430Z 35005KT 320V060 9999 FEW045TCU SCT045 28/20 Q1015
 
LDPL - Pula, Croatia
Oddaljenost od postaje: SSW 164km
Podatki zajeti: 12/08/2020 16:30
Rahlo oblačno
Rahlo oblačno
 Veter iz smeri W
Veter: W 15 km/h
Temperatura: 31°C
Toplotni indeks: 33°C
Rosišče: 20°C
Vlažnost: 52%
Tlak: 1015 hPa
Oblačnost: Rahlo oblačno
Vidljivost: 10 km
Podrobnosti o oblakih: Rahlo oblačno 1189 m
2020/08/12 14:30 LDPL 121430Z 27008KT 250V310 9999 FEW039 31/20 Q1015 NOSIG
LOWK - Klagenfurt(Civ/M, Austria
Oddaljenost od postaje: NW 76km
Podatki zajeti: 12/08/2020 16:20
Rahlo oblačno
Rahlo oblačno
 Veter iz smeri E
Veter: E 9 km/h
Temperatura: 27°C
Toplotni indeks: 28°C
Rosišče: 17°C
Vlažnost: 54%
Tlak: 1018 hPa
Oblačnost: Rahlo oblačno
Vidljivost: 10 km
Podrobnosti o oblakih: Rahlo oblačno 1524 m
Rahlo oblačno 1524 m
2020/08/12 14:20 LOWK 121420Z 10005KT 060V140 9999 FEW050 FEW050CB 27/17 Q1018 NOSIG
 
LOWG - Graz (mil/Civ), Austria
Oddaljenost od postaje: NNE 100km
Podatki zajeti: 12/08/2020 16:20
Rahlo oblačno
Rahlo oblačno
 Veter iz smeri S
Veter: S 9 km/h
Temperatura: 28°C
Toplotni indeks: 28°C
Rosišče: 16°C
Vlažnost: 48%
Tlak: 1018 hPa
Oblačnost: Rahlo oblačno
Vidljivost: 10 km
Podrobnosti o oblakih: Rahlo oblačno 1372 m
Rahlo oblačno 1524 m
2020/08/12 14:20 LOWG 121420Z 19005KT 160V230 9999 FEW045 FEW050CB 28/16 Q1018 NOSIG
LOAN - Wr.neustadt East, Austria
Oddaljenost od postaje: NNE 212km
Podatki zajeti: 12/08/2020 16:00
Delno oblačno
Delno oblačno
 Veter iz smeri SSE
Veter: SSE 15 km/h
Oblačnost: Delno oblačno
Podrobnosti o oblakih: Delno oblačno 1067 m
2020/08/12 14:00 LOAN 121400Z 15008KT 40KM SCT035CU
 
LIPQ - Ronchi Legionari, Italy
Oddaljenost od postaje: SW 35km
Podatki zajeti: 12/08/2020 16:20
Jasno
Jasno
 Veter iz smeri SW
Veter: SW 11 km/h
Temperatura: 31°C
Toplotni indeks: 33°C
Rosišče: 20°C
Vlažnost: 52%
Tlak: 1015 hPa
Oblačnost: Jasno
Vidljivost: 10 km
2020/08/12 14:20 LIPQ 121420Z AUTO 22006KT 180V240 9999 NCD 31/20 Q1015
LIVT - Trieste, Italy
Oddaljenost od postaje: WSW 109km
Podatki zajeti: 12/08/2020 15:55
Rahlo oblačno
Rahlo oblačno
 Veter iz smeri spremenljiv
Veter: spremenljiv 0 km/h
Temperatura: 30°C
Toplotni indeks: 33°C
Rosišče: 22°C
Vlažnost: 62%
Tlak: 1015 hPa
Oblačnost: Rahlo oblačno
Vidljivost: 10 km
Podrobnosti o oblakih: Rahlo oblačno 914 m
2020/08/12 13:55 LIVT 121355Z /////KT 9999 FEW030 30/22 Q1015 RMK FEW QUK 1 QUL 0 VIS MAR 20 KM VIS MIN 9999
 
LIVO - Tarvisio, Italy
Oddaljenost od postaje: NNW 49km
Podatki zajeti: 12/08/2020 16:23
Nevihte, Delno oblačno
Nevihte, Delno oblačno
 Veter iz smeri N
Veter: N 6 km/h
Temperatura: 25°C
Rosišče: 20°C
Vlažnost: 74%
Tlak: 1019 hPa
Stanje: Nevihte
Oblačnost: Delno oblačno
Vidljivost: 10 km
Podrobnosti o oblakih: Rahlo oblačno 762 m
Delno oblačno 853 m
2020/08/12 14:23 LIVO 121423Z 35003KT 9999 TS FEW025CB SCT028 25/20 Q1019 RMK BKN VIS MIN 9999
LIPZ - Venezia/Tessera, Italy
Oddaljenost od postaje: WSW 217km
Podatki zajeti: 12/08/2020 16:20
Jasno
Jasno
 Veter iz smeri SSE
Veter: SSE 7 km/h
Temperatura: 30°C
Toplotni indeks: 33°C
Rosišče: 22°C
Vlažnost: 62%
Tlak: 1015 hPa
Stanje: Jasno
Vidljivost: večja od 10 km
2020/08/12 14:20 LIPZ 121420Z 16004KT CAVOK 30/22 Q1015 NOSIG
 
LHSM - Balaton, Hungary
Oddaljenost od postaje: ENE 177km
Podatki zajeti: 12/08/2020 16:15
Jasno
Jasno
 Veter iz smeri spremenljiv
Veter: spremenljiv 6 km/h
Temperatura: 29°C
Toplotni indeks: 29°C
Rosišče: 18°C
Vlažnost: 51%
Tlak: 1017 hPa
Stanje: Jasno
Vidljivost: večja od 10 km
2020/08/12 14:15 LHSM 121415Z AUTO VRB03KT CAVOK 29/18 Q1017 NOSIG